Time;durP1;ratioP1;P1;durP2;ratioP2;P2;SDS_P1;SDS_P2;PMS_P1;PMS_P2;Temp;Humidity;BMP_temperature;BMP_pressure;BME280_temperature;BME280_humidity;BME280_pressure;Samples;Min_cycle;Max_cycle;Signal;HPM_P1;HPM_P2
2024/01/19 00:01:14;;;;;;;16.95;9.55;;;;;;;-2.98;100.00;101112.34;5033575;28;20040;-77
2024/01/19 00:03:39;;;;;;;17.08;10.60;;;;;;;-3.00;100.00;101110.81;5051516;28;20040;-77
2024/01/19 00:06:05;;;;;;;14.43;10.35;;;;;;;-3.02;100.00;101110.94;5033527;28;20128;-77
2024/01/19 00:08:30;;;;;;;14.93;10.07;;;;;;;-3.01;100.00;101109.97;5051443;28;20045;-78
2024/01/19 00:10:56;;;;;;;15.63;8.60;;;;;;;-2.88;100.00;101121.16;5033387;28;20562;-77
2024/01/19 00:13:21;;;;;;;12.07;8.68;;;;;;;-2.94;100.00;101118.19;5033477;28;20112;-77
2024/01/19 00:15:46;;;;;;;14.20;8.85;;;;;;;-2.95;100.00;101113.91;5051411;28;20457;-76
2024/01/19 00:18:12;;;;;;;16.10;9.80;;;;;;;-2.94;100.00;101110.34;5051197;28;20025;-77
2024/01/19 00:20:37;;;;;;;13.98;9.60;;;;;;;-2.91;100.00;101126.63;5051546;28;20446;-77
2024/01/19 00:23:03;;;;;;;16.63;8.82;;;;;;;-2.90;100.00;101124.81;5033327;28;20029;-76
2024/01/19 00:25:28;;;;;;;11.40;8.38;;;;;;;-2.94;100.00;101110.34;5051090;28;20033;-77
2024/01/19 00:27:54;;;;;;;13.82;8.15;;;;;;;-2.87;100.00;101116.78;5033212;28;20033;-77
2024/01/19 00:30:19;;;;;;;13.82;9.23;;;;;;;-2.93;100.00;101117.22;5033444;28;20025;-76
2024/01/19 00:32:44;;;;;;;17.48;10.27;;;;;;;-2.95;100.00;101135.66;5053547;28;20060;-77
2024/01/19 00:35:10;;;;;;;12.73;9.43;;;;;;;-3.05;100.00;101128.66;5036624;28;20076;-76
2024/01/19 00:37:35;;;;;;;12.20;8.40;;;;;;;-3.06;100.00;101143.53;5054508;28;20386;-76
2024/01/19 00:40:00;;;;;;;13.50;8.48;;;;;;;-2.96;100.00;101139.22;5054501;28;20041;-77
2024/01/19 00:42:26;;;;;;;10.40;7.90;;;;;;;-3.02;100.00;101146.72;5036462;28;20033;-77
2024/01/19 00:44:52;;;;;;;16.45;9.13;;;;;;;-3.05;100.00;101139.13;5054310;28;20039;-76
2024/01/19 00:47:17;;;;;;;14.02;8.38;;;;;;;-3.10;100.00;101151.72;5054277;28;20039;-77
2024/01/19 00:49:42;;;;;;;16.05;8.30;;;;;;;-3.12;100.00;101159.69;5036418;28;20402;-76
2024/01/19 00:52:08;;;;;;;14.18;8.40;;;;;;;-3.06;100.00;101155.75;5053952;28;20059;-76
2024/01/19 00:54:34;;;;;;;11.68;7.30;;;;;;;-3.00;100.00;101157.91;5054078;28;20086;-76
2024/01/19 00:57:00;;;;;;;14.43;8.25;;;;;;;-2.95;100.00;101161.81;5054141;28;20061;-77
2024/01/19 00:59:25;;;;;;;13.43;8.55;;;;;;;-2.88;100.00;101157.78;5036102;28;20060;-76
2024/01/19 01:01:50;;;;;;;14.13;8.90;;;;;;;-2.85;100.00;101159.34;5054097;28;20025;-77
2024/01/19 01:04:16;;;;;;;12.70;8.25;;;;;;;-2.82;100.00;101157.31;5054205;28;20033;-77
2024/01/19 01:06:41;;;;;;;11.93;7.13;;;;;;;-2.78;100.00;101167.53;5036223;28;20430;-77
2024/01/19 01:09:07;;;;;;;11.45;8.18;;;;;;;-2.85;100.00;101160.16;5036048;28;20068;-77
2024/01/19 01:11:32;;;;;;;13.57;7.82;;;;;;;-2.91;100.00;101165.84;5053861;28;20029;-77
2024/01/19 01:13:58;;;;;;;14.48;7.85;;;;;;;-3.01;100.00;101167.53;5054104;28;20049;-77
2024/01/19 01:16:23;;;;;;;12.10;7.60;;;;;;;-3.06;100.00;101156.59;5035984;28;20366;-77
2024/01/19 01:18:48;;;;;;;11.90;7.80;;;;;;;-3.08;100.00;101158.50;5053745;28;20116;-76
2024/01/19 01:21:14;;;;;;;12.30;7.70;;;;;;;-3.04;100.00;101161.72;5035872;28;20033;-77
2024/01/19 01:23:39;;;;;;;11.43;7.97;;;;;;;-3.05;100.00;101155.66;5053631;28;20031;-78
2024/01/19 01:26:05;;;;;;;11.05;8.18;;;;;;;-2.96;100.00;101172.41;5053712;28;20362;-77
2024/01/19 01:28:31;;;;;;;14.45;7.75;;;;;;;-2.89;100.00;101176.19;5035945;28;20047;-77
2024/01/19 01:30:56;;;;;;;15.95;7.85;;;;;;;-2.91;100.00;101173.69;5053558;28;20029;-77
2024/01/19 01:33:22;;;;;;;13.70;8.93;;;;;;;-2.94;100.00;101166.09;5035770;28;20033;-77
2024/01/19 01:35:47;;;;;;;11.43;7.78;;;;;;;-2.95;100.00;101174.06;5053401;28;20473;-77
2024/01/19 01:38:12;;;;;;;13.98;9.07;;;;;;;-2.94;100.00;101173.94;5035703;28;20544;-77
2024/01/19 01:40:38;;;;;;;12.52;8.13;;;;;;;-2.93;100.00;101170.38;5035809;28;20040;-76
2024/01/19 01:43:05;;;;;;;13.40;9.25;;;;;;;-2.92;100.00;101177.28;5034356;28;20025;-77
2024/01/19 01:45:30;;;;;;;15.93;10.48;;;;;;;-2.99;100.00;101181.31;5053221;28;20032;-77
2024/01/19 01:47:56;;;;;;;17.25;8.77;;;;;;;-3.08;100.00;101184.66;5053268;28;20491;-77
2024/01/19 01:50:22;;;;;;;13.90;10.20;;;;;;;-3.22;100.00;101177.00;5035523;28;20437;-77
2024/01/19 01:52:48;;;;;;;13.77;9.50;;;;;;;-3.31;100.00;101178.56;5053113;28;20103;-77
2024/01/19 01:55:15;;;;;;;17.05;10.43;;;;;;;-3.35;100.00;101195.41;5053301;28;20469;-77
2024/01/19 01:57:42;;;;;;;12.35;9.13;;;;;;;-3.44;100.00;101194.34;5053192;28;20389;-76
2024/01/19 02:00:10;;;;;;;16.48;9.13;;;;;;;-3.50;100.00;101194.78;5053263;28;20335;-77
2024/01/19 02:02:36;;;;;;;17.70;10.05;;;;;;;-3.53;100.00;101196.78;5053235;28;20033;-76
2024/01/19 02:05:02;;;;;;;14.18;9.05;;;;;;;-3.59;100.00;101195.47;5053066;28;20033;-76
2024/01/19 02:07:27;;;;;;;15.32;8.90;;;;;;;-3.61;100.00;101192.13;5053102;28;20040;-77
2024/01/19 02:09:53;;;;;;;12.02;8.30;;;;;;;-3.66;100.00;101191.66;5052833;28;20033;-77
2024/01/19 02:12:18;;;;;;;15.48;8.43;;;;;;;-3.62;100.00;101197.47;5034995;28;20040;-77
2024/01/19 02:14:44;;;;;;;15.95;8.23;;;;;;;-3.63;100.00;101204.50;5052939;28;20037;-77
2024/01/19 02:17:09;;;;;;;16.33;7.88;;;;;;;-3.67;100.00;101207.44;5052857;28;20108;-77
2024/01/19 02:19:35;;;;;;;11.80;8.05;;;;;;;-3.70;100.00;101210.28;5053257;28;20061;-76
2024/01/19 02:22:02;;;;;;;17.42;8.48;;;;;;;-3.62;100.00;101213.16;5052844;28;20102;-77
2024/01/19 02:24:27;;;;;;;12.23;8.50;;;;;;;-3.51;100.00;101214.03;5034954;28;20438;-76
2024/01/19 02:26:55;;;;;;;7.43;6.30;;;;;;;-3.38;100.00;101227.03;5034822;28;20115;-76
2024/01/19 02:29:20;;;;;;;10.52;6.07;;;;;;;-3.35;100.00;101225.97;5034777;28;20067;-77
2024/01/19 02:31:46;;;;;;;9.90;7.28;;;;;;;-3.31;100.00;101227.38;5034853;28;20025;-77
2024/01/19 02:34:11;;;;;;;8.00;6.32;;;;;;;-3.27;100.00;101227.03;5034739;28;20061;-77
2024/01/19 02:36:36;;;;;;;11.18;6.43;;;;;;;-3.16;100.00;101236.72;5034879;28;20123;-77
2024/01/19 02:39:02;;;;;;;12.73;8.15;;;;;;;-3.12;100.00;101238.13;5052534;28;20033;-77
2024/01/19 02:41:27;;;;;;;9.40;7.18;;;;;;;-3.11;100.00;101234.56;5052582;28;20029;-77
2024/01/19 02:43:53;;;;;;;7.93;5.97;;;;;;;-3.05;100.00;101238.50;5034749;28;20035;-77
2024/01/19 02:46:20;;;;;;;11.90;5.80;;;;;;;-3.05;100.00;101239.34;5034803;28;20056;-77
2024/01/19 02:48:45;;;;;;;12.90;6.60;;;;;;;-3.04;100.00;101248.00;5052488;28;20028;-77
2024/01/19 02:51:11;;;;;;;11.98;6.75;;;;;;;-3.05;100.00;101251.56;5034361;28;20035;-76
2024/01/19 02:53:36;;;;;;;9.60;6.25;;;;;;;-2.99;100.00;101249.31;5052491;28;20060;-76
2024/01/19 02:56:01;;;;;;;9.48;6.90;;;;;;;-2.94;100.00;101249.81;5034118;28;20025;-76
2024/01/19 02:58:27;;;;;;;9.52;6.07;;;;;;;-2.91;100.00;101261.81;5034310;28;20029;-76
2024/01/19 03:00:54;;;;;;;10.15;6.10;;;;;;;-2.77;100.00;101260.78;5034514;28;20044;-76
2024/01/19 03:03:19;;;;;;;13.13;6.82;;;;;;;-2.81;100.00;101270.66;5052431;28;20029;-76
2024/01/19 03:05:45;;;;;;;7.97;5.47;;;;;;;-2.77;100.00;101268.63;5052402;28;20047;-76
2024/01/19 03:08:10;;;;;;;10.90;8.38;;;;;;;-2.72;100.00;101262.09;5052140;28;20117;-76
2024/01/19 03:10:35;;;;;;;10.55;6.68;;;;;;;-2.70;100.00;101260.19;5034295;28;20059;-76
2024/01/19 03:13:01;;;;;;;10.60;5.47;;;;;;;-2.75;100.00;101261.50;5052024;28;20033;-76
2024/01/19 03:15:26;;;;;;;17.60;9.20;;;;;;;-2.74;100.00;101271.00;5034398;28;20032;-76
2024/01/19 03:17:51;;;;;;;12.85;7.93;;;;;;;-2.72;100.00;101269.94;5052050;28;20033;-77
2024/01/19 03:20:17;;;;;;;7.63;5.22;;;;;;;-2.77;100.00;101273.84;5052114;28;20044;-77
2024/01/19 03:22:42;;;;;;;13.50;7.55;;;;;;;-2.86;100.00;101264.94;5034270;28;20512;-77
2024/01/19 03:25:07;;;;;;;8.95;7.05;;;;;;;-2.91;100.00;101267.88;5051948;28;20112;-77
2024/01/19 03:27:33;;;;;;;10.02;7.00;;;;;;;-2.85;100.00;101271.84;5052036;28;20036;-77
2024/01/19 03:29:58;;;;;;;12.57;7.72;;;;;;;-2.88;100.00;101280.75;5051927;28;20036;-77
2024/01/19 03:32:24;;;;;;;10.70;7.53;;;;;;;-2.83;100.00;101281.22;5051783;28;20029;-77
2024/01/19 03:34:49;;;;;;;12.07;8.27;;;;;;;-2.80;100.00;101285.41;5052117;28;20037;-77
2024/01/19 03:37:15;;;;;;;12.07;7.50;;;;;;;-2.79;100.00;101275.75;5051824;28;20021;-77
2024/01/19 03:39:40;;;;;;;12.93;9.50;;;;;;;-2.84;100.00;101283.97;5051778;28;20021;-77
2024/01/19 03:42:05;;;;;;;12.98;8.90;;;;;;;-2.90;100.00;101280.00;5051715;28;20057;-77
2024/01/19 03:44:31;;;;;;;14.20;8.75;;;;;;;-2.87;100.00;101279.81;5051834;28;20025;-77
2024/01/19 03:46:59;;;;;;;13.07;8.07;;;;;;;-2.89;100.00;101273.00;5051836;28;20052;-77
2024/01/19 03:49:24;;;;;;;14.35;9.73;;;;;;;-2.88;100.00;101283.38;5051862;28;20021;-76
2024/01/19 03:52:07;;;;;;;16.27;10.43;;;;;;;-2.94;100.00;101282.97;5051762;28;20048;-77
2024/01/19 03:54:33;;;;;;;12.80;9.52;;;;;;;-2.97;100.00;101288.44;5051729;28;20477;-77
2024/01/19 03:57:02;;;;;;;15.10;10.18;;;;;;;-2.96;100.00;101287.50;5033806;28;20455;-77
2024/01/19 03:59:28;;;;;;;15.65;11.10;;;;;;;-2.93;100.00;101282.84;5051536;28;20116;-77
2024/01/19 04:01:55;;;;;;;16.95;11.38;;;;;;;-2.90;100.00;101295.69;5051637;28;20147;-77
2024/01/19 04:04:20;;;;;;;14.88;11.30;;;;;;;-2.98;100.00;101287.59;5051716;28;20472;-76
2024/01/19 04:06:46;;;;;;;15.93;11.88;;;;;;;-3.05;100.00;101291.63;5052677;28;20107;-77
2024/01/19 04:09:11;;;;;;;17.65;11.02;;;;;;;-3.03;100.00;101288.91;5054860;28;20025;-77
2024/01/19 04:11:37;;;;;;;18.08;11.82;;;;;;;-3.07;100.00;101293.53;5054899;28;20112;-77
2024/01/19 04:14:03;;;;;;;16.48;10.40;;;;;;;-3.04;100.00;101285.47;5054877;28;20082;-77
2024/01/19 04:16:28;;;;;;;13.55;9.65;;;;;;;-3.06;100.00;101295.22;5054938;28;20025;-77
2024/01/19 04:18:54;;;;;;;19.42;11.50;;;;;;;-3.10;100.00;101293.78;5054901;28;20033;-74
2024/01/19 04:21:19;;;;;;;12.50;8.00;;;;;;;-3.03;100.00;101297.59;5054797;28;20040;-75
2024/01/19 04:23:47;;;;;;;11.93;9.30;;;;;;;-3.07;100.00;101304.00;5054724;28;20481;-75
2024/01/19 04:26:12;;;;;;;13.50;10.68;;;;;;;-3.07;100.00;101314.47;5036813;28;20024;-75
2024/01/19 04:28:39;;;;;;;17.58;11.27;;;;;;;-3.05;100.00;101303.88;5054662;28;20079;-75
2024/01/19 04:31:05;;;;;;;16.35;11.38;;;;;;;-2.98;100.00;101312.94;5036634;28;20087;-75
2024/01/19 04:33:31;;;;;;;14.50;10.25;;;;;;;-3.04;100.00;101308.16;5036689;28;20366;-75
2024/01/19 04:35:56;;;;;;;16.05;10.50;;;;;;;-3.00;100.00;101315.66;5054596;28;20020;-75
2024/01/19 04:38:21;;;;;;;16.98;11.05;;;;;;;-3.04;100.00;101313.41;5036530;28;20021;-75
2024/01/19 04:40:47;;;;;;;19.67;11.07;;;;;;;-3.05;100.00;101322.19;5036600;28;20112;-75
2024/01/19 04:43:12;;;;;;;14.20;9.35;;;;;;;-3.14;100.00;101321.94;5054516;28;20029;-75
2024/01/19 04:45:38;;;;;;;16.40;11.27;;;;;;;-3.10;100.00;101338.22;5054383;28;20075;-74
2024/01/19 04:48:03;;;;;;;18.70;11.30;;;;;;;-3.16;100.00;101329.06;5054544;28;20481;-75
2024/01/19 04:50:29;;;;;;;15.57;11.32;;;;;;;-3.18;100.00;101338.81;5054356;28;20021;-74
2024/01/19 04:52:54;;;;;;;19.98;11.93;;;;;;;-3.19;100.00;101331.88;5054165;28;20358;-75
2024/01/19 04:55:19;;;;;;;19.05;10.85;;;;;;;-3.10;100.00;101348.69;5054086;28;20037;-75
2024/01/19 04:57:45;;;;;;;19.13;15.02;;;;;;;-3.14;100.00;101360.34;5036337;28;20464;-74
2024/01/19 05:00:12;;;;;;;17.92;12.10;;;;;;;-3.20;100.00;101358.13;5054236;28;20029;-74
2024/01/19 05:02:37;;;;;;;26.40;17.33;;;;;;;-3.14;100.00;101349.88;5054085;28;20075;-74
2024/01/19 05:05:03;;;;;;;12.38;9.52;;;;;;;-3.13;100.00;101359.38;5035951;28;20032;-74
2024/01/19 05:07:28;;;;;;;19.67;12.98;;;;;;;-3.14;100.00;101353.31;5036108;28;20036;-74
2024/01/19 05:09:53;;;;;;;14.85;10.70;;;;;;;-3.16;100.00;101343.91;5054031;28;20423;-75
2024/01/19 05:12:19;;;;;;;20.60;13.05;;;;;;;-3.23;100.00;101347.91;5053849;28;20064;-74
2024/01/19 05:14:47;;;;;;;22.17;12.55;;;;;;;-3.28;100.00;101352.66;5036392;28;20033;-75
2024/01/19 05:17:12;;;;;;;19.50;12.68;;;;;;;-3.33;100.00;101365.22;5036020;28;20033;-75
2024/01/19 05:19:38;;;;;;;21.73;12.13;;;;;;;-3.36;100.00;101366.28;5053825;28;20029;-75
2024/01/19 05:22:03;;;;;;;16.55;12.15;;;;;;;-3.42;100.00;101363.28;5053923;28;20033;-75
2024/01/19 05:24:29;;;;;;;20.52;14.25;;;;;;;-3.49;100.00;101362.88;5053786;28;20040;-75
2024/01/19 05:26:54;;;;;;;22.92;12.95;;;;;;;-3.43;100.00;101370.28;5035916;28;20442;-75
2024/01/19 05:29:22;;;;;;;20.67;10.85;;;;;;;-3.41;100.00;101376.25;5035602;28;20029;-74
2024/01/19 05:31:48;;;;;;;24.83;15.48;;;;;;;-3.42;100.00;101376.34;5053691;28;20128;-75
2024/01/19 05:34:14;;;;;;;18.67;13.45;;;;;;;-3.48;100.00;101375.00;5053716;28;20476;-74
2024/01/19 05:36:40;;;;;;;18.02;13.60;;;;;;;-3.46;100.00;101394.03;5053531;28;20481;-74
2024/01/19 05:39:07;;;;;;;23.15;12.27;;;;;;;-3.46;100.00;101404.50;5053410;28;20041;-75
2024/01/19 05:41:32;;;;;;;16.50;12.05;;;;;;;-3.46;100.00;101410.56;5053693;28;20115;-74
2024/01/19 05:43:58;;;;;;;24.38;13.25;;;;;;;-3.46;100.00;101421.00;5053637;28;20108;-74
2024/01/19 05:46:23;;;;;;;18.00;13.52;;;;;;;-3.40;100.00;101427.56;5053329;28;20029;-77
2024/01/19 05:48:48;;;;;;;18.15;14.30;;;;;;;-3.44;100.00;101426.97;5035683;28;20083;-75
2024/01/19 05:51:15;;;;;;;20.58;13.82;;;;;;;-3.41;100.00;101430.31;5053285;28;20075;-75
2024/01/19 05:53:40;;;;;;;21.27;13.32;;;;;;;-3.36;100.00;101439.47;5053448;28;20490;-74
2024/01/19 05:56:06;;;;;;;16.90;11.43;;;;;;;-3.32;100.00;101446.16;5053284;28;20108;-74
2024/01/19 05:58:31;;;;;;;19.17;12.50;;;;;;;-3.22;100.00;101451.56;5053342;28;20033;-74
2024/01/19 06:00:57;;;;;;;16.40;11.68;;;;;;;-3.20;100.00;101447.03;5053162;28;20017;-74
2024/01/19 06:03:22;;;;;;;25.42;14.63;;;;;;;-3.15;100.00;101463.25;5053145;28;20111;-74
2024/01/19 06:05:48;;;;;;;25.70;13.35;;;;;;;-3.09;100.00;101464.59;5053124;28;20108;-74
2024/01/19 06:08:13;;;;;;;17.90;12.02;;;;;;;-3.06;100.00;101461.75;5035169;28;20255;-74
2024/01/19 06:10:39;;;;;;;22.75;13.88;;;;;;;-2.98;100.00;101481.19;5035059;28;20025;-74
2024/01/19 06:13:04;;;;;;;21.60;13.30;;;;;;;-2.90;100.00;101484.06;5035120;28;20033;-74
2024/01/19 06:15:29;;;;;;;19.02;13.35;;;;;;;-2.89;100.00;101487.50;5053020;28;20028;-75
2024/01/19 06:17:55;;;;;;;24.77;14.98;;;;;;;-2.86;100.00;101496.00;5034995;28;20087;-74
2024/01/19 06:20:20;;;;;;;18.05;11.23;;;;;;;-2.86;100.00;101498.63;5052820;28;20025;-73
2024/01/19 06:22:46;;;;;;;19.25;13.50;;;;;;;-2.85;100.00;101499.44;5052872;28;20033;-74
2024/01/19 06:25:11;;;;;;;21.50;13.30;;;;;;;-2.83;100.00;101510.63;5052896;28;20055;-74
2024/01/19 06:27:37;;;;;;;18.63;13.15;;;;;;;-2.85;100.00;101507.31;5052847;28;20040;-74
2024/01/19 06:30:03;;;;;;;19.05;12.63;;;;;;;-2.85;100.00;101510.75;5034278;28;20033;-74
2024/01/19 06:32:30;;;;;;;16.63;12.73;;;;;;;-2.89;100.00;101518.91;5052710;28;20042;-75
2024/01/19 06:34:55;;;;;;;17.50;13.50;;;;;;;-2.94;100.00;101528.88;5034835;28;20044;-75
2024/01/19 06:37:20;;;;;;;16.23;12.73;;;;;;;-2.96;100.00;101523.75;5034825;28;20040;-75
2024/01/19 06:39:46;;;;;;;16.85;11.70;;;;;;;-2.96;100.00;101521.13;5052656;28;20402;-77
2024/01/19 06:42:13;;;;;;;19.05;13.02;;;;;;;-2.98;100.00;101524.81;5053241;28;20415;-76
2024/01/19 06:44:44;;;;;;;17.67;13.98;;;;;;;-3.01;100.00;101525.03;5034943;28;20079;-76
2024/01/19 06:47:10;;;;;;;19.75;13.30;;;;;;;-3.12;100.00;101525.81;5034639;28;20378;-76
2024/01/19 06:49:38;;;;;;;13.63;10.25;;;;;;;-3.17;100.00;101514.84;5053482;28;20029;-76
2024/01/19 06:52:07;;;;;;;19.67;12.95;;;;;;;-3.29;100.00;101524.38;5034210;28;20025;-75
2024/01/19 06:54:32;;;;;;;18.33;13.43;;;;;;;-3.39;100.00;101535.59;5052239;28;20036;-76
2024/01/19 06:56:58;;;;;;;18.23;13.07;;;;;;;-3.53;100.00;101534.75;5052136;28;20024;-76
2024/01/19 06:59:25;;;;;;;17.42;12.95;;;;;;;-3.60;100.00;101533.50;5052092;28;20021;-76
2024/01/19 07:01:50;;;;;;;19.08;11.93;;;;;;;-3.63;100.00;101546.78;5051927;28;20469;-76
2024/01/19 07:04:16;;;;;;;17.55;13.50;;;;;;;-3.70;100.00;101550.78;5033968;28;20036;-76
2024/01/19 07:06:41;;;;;;;21.40;13.70;;;;;;;-3.72;100.00;101555.25;5052448;28;20508;-77
2024/01/19 07:09:08;;;;;;;19.13;13.65;;;;;;;-3.75;100.00;101552.88;5052184;28;20033;-74
2024/01/19 07:11:34;;;;;;;16.35;12.07;;;;;;;-3.78;100.00;101563.50;5051848;28;20029;-75
2024/01/19 07:13:59;;;;;;;18.70;12.73;;;;;;;-3.84;100.00;101556.91;5052001;28;20493;-74
2024/01/19 07:16:25;;;;;;;17.20;12.93;;;;;;;-3.94;100.00;101560.25;5052088;28;20029;-75
2024/01/19 07:18:50;;;;;;;19.38;13.60;;;;;;;-3.88;100.00;101572.91;5051809;28;20024;-73
2024/01/19 07:21:16;;;;;;;20.30;13.95;;;;;;;-3.90;100.00;101580.84;5051360;28;20452;-75
2024/01/19 07:23:41;;;;;;;19.33;12.35;;;;;;;-3.89;100.00;101576.44;5051519;28;20029;-75
2024/01/19 07:26:07;;;;;;;23.90;14.50;;;;;;;-3.86;100.00;101586.69;5051470;28;20035;-76
2024/01/19 07:28:32;;;;;;;17.70;13.20;;;;;;;-3.95;100.00;101572.47;5033614;28;20037;-75
2024/01/19 07:30:57;;;;;;;23.35;14.05;;;;;;;-3.98;100.00;101577.06;5051296;28;20028;-75
2024/01/19 07:33:24;;;;;;;20.10;13.25;;;;;;;-3.96;100.00;101581.25;5051249;28;20538;-75
2024/01/19 07:35:49;;;;;;;22.70;15.32;;;;;;;-3.93;100.00;101588.03;5033449;28;20096;-76
2024/01/19 07:38:14;;;;;;;24.25;16.00;;;;;;;-3.97;100.00;101587.41;5033332;28;20037;-76
2024/01/19 07:40:40;;;;;;;22.90;13.93;;;;;;;-3.96;100.00;101591.69;5051284;28;20029;-75
2024/01/19 07:43:05;;;;;;;24.33;15.45;;;;;;;-3.94;100.00;101594.22;5054167;28;20037;-75
2024/01/19 07:45:30;;;;;;;15.88;12.65;;;;;;;-3.96;100.00;101591.69;5054746;28;20466;-75
2024/01/19 07:47:56;;;;;;;23.77;16.23;;;;;;;-3.91;100.00;101600.06;5036901;28;20043;-75
2024/01/19 07:50:22;;;;;;;21.45;14.30;;;;;;;-3.93;100.00;101604.56;5036980;28;20106;-76
2024/01/19 07:52:47;;;;;;;18.27;14.55;;;;;;;-3.90;100.00;101611.34;5054568;28;20894;-77
2024/01/19 07:55:13;;;;;;;26.27;16.00;;;;;;;-3.85;100.00;101614.47;5036756;28;20025;-78
2024/01/19 07:57:39;;;;;;;26.30;14.48;;;;;;;-3.72;100.00;101625.81;5036681;28;20025;-77
2024/01/19 08:00:06;;;;;;;25.60;15.57;;;;;;;-3.60;100.00;101613.69;5054512;28;20078;-76
2024/01/19 08:02:32;;;;;;;25.35;17.42;;;;;;;-3.17;100.00;101622.91;5036530;28;20401;-76
2024/01/19 08:04:57;;;;;;;27.63;18.48;;;;;;;-2.76;100.00;101626.16;5054575;28;20025;-74
2024/01/19 08:07:22;;;;;;;25.63;17.63;;;;;;;-2.41;100.00;101624.47;5036668;28;20029;-73
2024/01/19 08:09:48;;;;;;;24.25;15.43;;;;;;;-2.21;100.00;101644.00;5036474;28;20029;-74
2024/01/19 08:12:14;;;;;;;30.80;17.98;;;;;;;-2.28;100.00;101653.25;5054383;28;20040;-74
2024/01/19 08:14:40;;;;;;;18.13;14.23;;;;;;;-2.53;100.00;101649.75;5054383;28;20435;-74
2024/01/19 08:17:05;;;;;;;18.88;12.50;;;;;;;-2.78;100.00;101651.59;5054237;28;20056;-70
2024/01/19 08:19:30;;;;;;;23.45;14.63;;;;;;;-2.91;100.00;101656.84;5054224;28;20046;-70
2024/01/19 08:21:56;;;;;;;23.65;14.15;;;;;;;-2.96;100.00;101654.56;5054154;28;20044;-71
2024/01/19 08:24:21;;;;;;;19.27;14.68;;;;;;;-3.00;100.00;101660.09;5045972;28;20033;-71
2024/01/19 08:26:47;;;;;;;20.77;13.75;;;;;;;-3.01;100.00;101647.97;5053999;28;20025;-72
2024/01/19 08:29:12;;;;;;;26.08;15.57;;;;;;;-2.95;100.00;101658.84;5053925;28;20368;-72
2024/01/19 08:31:38;;;;;;;25.30;16.55;;;;;;;-2.93;100.00;101651.72;5053842;28;20104;-73
2024/01/19 08:34:03;;;;;;;32.28;18.88;;;;;;;-2.65;100.00;101663.72;5053894;28;20025;-70
2024/01/19 08:36:28;;;;;;;27.60;16.55;;;;;;;-2.23;100.00;101672.06;5053844;28;20497;-72
2024/01/19 08:38:55;;;;;;;38.13;18.65;;;;;;;-1.45;100.00;101676.78;5035945;28;20037;-70
2024/01/19 08:41:20;;;;;;;29.20;17.95;;;;;;;-0.69;100.00;101681.38;5053707;28;20448;-71
2024/01/19 08:43:46;;;;;;;20.98;14.32;;;;;;;0.06;100.00;101680.66;5053958;28;20492;-72
2024/01/19 08:46:11;;;;;;;29.70;19.90;;;;;;;0.61;100.00;101676.91;5053812;28;20059;-70
2024/01/19 08:48:37;;;;;;;33.90;20.60;;;;;;;1.21;100.00;101685.84;5053717;28;20424;-71
2024/01/19 08:51:02;;;;;;;20.10;15.48;;;;;;;1.09;100.00;101673.69;5053657;28;20493;-70
2024/01/19 08:53:28;;;;;;;19.48;13.57;;;;;;;1.22;100.00;101690.97;5053236;28;20029;-70
2024/01/19 08:55:54;;;;;;;18.00;10.77;;;;;;;1.10;100.00;101694.63;5053604;28;20040;-70
2024/01/19 08:58:19;;;;;;;18.35;11.02;;;;;;;1.58;100.00;101698.44;5053565;28;20035;-70
2024/01/19 09:00:44;;;;;;;13.05;11.63;;;;;;;2.51;100.00;101703.25;5053334;28;20043;-70
2024/01/19 09:03:10;;;;;;;14.90;10.90;;;;;;;3.48;100.00;101703.84;5053404;28;20056;-70
2024/01/19 09:05:36;;;;;;;12.73;9.40;;;;;;;4.33;100.00;101725.41;5053414;28;20163;-71
2024/01/19 09:08:01;;;;;;;11.32;8.07;;;;;;;5.20;100.00;101721.09;5035863;28;20035;-70
2024/01/19 09:10:27;;;;;;;9.70;7.50;;;;;;;5.44;100.00;101731.00;5053288;28;20021;-71
2024/01/19 09:12:52;;;;;;;11.95;6.90;;;;;;;5.06;100.00;101730.47;5053243;28;20041;-71
2024/01/19 09:15:18;;;;;;;8.93;6.53;;;;;;;4.95;100.00;101731.56;5053436;28;20469;-73
2024/01/19 09:17:43;;;;;;;8.05;5.50;;;;;;;5.08;100.00;101739.09;5053361;28;20412;-75
2024/01/19 09:20:10;;;;;;;9.18;7.55;;;;;;;5.72;100.00;101748.38;5035239;28;20033;-72
2024/01/19 09:22:35;;;;;;;10.23;6.82;;;;;;;6.07;100.00;101755.34;5053150;28;20036;-73
2024/01/19 09:25:01;;;;;;;8.68;5.70;;;;;;;5.64;100.00;101750.16;5035342;28;20140;-74
2024/01/19 09:27:27;;;;;;;7.03;6.15;;;;;;;5.31;100.00;101746.53;5035303;28;20029;-75
2024/01/19 09:29:53;;;;;;;9.48;5.50;;;;;;;5.51;100.00;101758.56;5053212;28;20040;-75
2024/01/19 09:32:18;;;;;;;7.78;6.05;;;;;;;4.76;100.00;101754.75;5035355;28;20043;-76
2024/01/19 09:34:45;;;;;;;9.25;6.80;;;;;;;3.84;100.00;101763.78;5053456;28;20017;-75
2024/01/19 09:37:10;;;;;;;9.73;7.88;;;;;;;3.10;100.00;101753.19;5053015;28;20041;-77
2024/01/19 09:39:35;;;;;;;8.45;6.65;;;;;;;2.99;100.00;101761.28;5053176;28;20040;-75
2024/01/19 09:42:09;;;;;;;9.52;6.07;;;;;;;2.97;100.00;101763.25;5052987;28;20037;-77
2024/01/19 09:44:36;;;;;;;8.52;6.78;;;;;;;3.28;100.00;101777.91;5052841;28;20029;-75
2024/01/19 09:47:17;;;;;;;8.93;6.53;;;;;;;3.81;100.00;101784.41;5053123;28;20033;-80
2024/01/19 09:50:02;;;;;;;9.23;7.00;;;;;;;4.74;100.00;101788.50;5035145;28;20655;-79
2024/01/19 09:52:44;;;;;;;13.30;6.57;;;;;;;5.38;100.00;101798.75;5035110;28;20106;-78
2024/01/19 09:55:11;;;;;;;8.23;6.53;;;;;;;5.18;100.00;101795.47;5034786;28;20124;-77
2024/01/19 09:57:43;;;;;;;8.15;6.07;;;;;;;5.84;100.00;101792.22;5034819;28;20543;-79
2024/01/19 10:00:09;;;;;;;10.60;7.32;;;;;;;5.86;100.00;101797.38;5035103;28;20024;-80
2024/01/19 10:02:34;;;;;;;9.13;6.75;;;;;;;4.69;100.00;101801.38;5052376;28;20477;-81
2024/01/19 10:05:00;;;;;;;11.15;6.63;;;;;;;5.00;100.00;101807.94;5051826;28;20116;-82
2024/01/19 10:07:26;;;;;;;8.82;5.72;;;;;;;5.60;100.00;101808.84;5053207;28;20037;-81
2024/01/19 10:09:52;;;;;;;8.93;6.38;;;;;;;4.96;100.00;101819.84;5035459;28;20029;-81
2024/01/19 10:12:19;;;;;;;11.98;7.13;;;;;;;4.01;100.00;101820.34;5052735;28;20029;-77
2024/01/19 10:14:44;;;;;;;9.45;6.93;;;;;;;3.72;100.00;101829.25;5034924;28;20029;-81
2024/01/19 10:17:10;;;;;;;7.70;6.55;;;;;;;3.76;100.00;101813.06;5052359;28;20033;-77
2024/01/19 10:19:35;;;;;;;10.43;6.57;;;;;;;3.42;100.00;101809.16;5034548;28;20047;-76
2024/01/19 10:22:23;;;;;;;11.73;7.15;;;;;;;3.36;100.00;101808.91;5034756;28;20032;-75
2024/01/19 10:25:05;;;;;;;11.30;7.43;;;;;;;4.46;100.00;101820.38;5052397;28;20405;-76
2024/01/19 10:27:39;;;;;;;8.48;5.97;;;;;;;5.25;100.00;101820.41;5045285;28;20397;-78
2024/01/19 10:30:09;;;;;;;11.65;6.30;;;;;;;5.63;100.00;101820.97;5052530;28;20059;-77
2024/01/19 10:32:41;;;;;;;6.88;6.13;;;;;;;5.81;100.00;101827.03;5034275;28;20032;-76
2024/01/19 10:35:10;;;;;;;9.25;6.10;;;;;;;6.10;100.00;101825.88;5052267;28;20393;-76
2024/01/19 10:37:36;;;;;;;8.25;6.43;;;;;;;5.76;100.00;101829.31;5034227;28;20033;-76
2024/01/19 10:40:17;;;;;;;10.82;6.95;;;;;;;5.54;100.00;101841.31;5034156;28;20040;-81
2024/01/19 10:42:43;;;;;;;7.95;6.40;;;;;;;5.54;100.00;101825.41;5034198;28;20116;-80
2024/01/19 10:45:15;;;;;;;9.07;6.72;;;;;;;5.94;100.00;101831.09;5051917;28;20386;-80
2024/01/19 10:47:45;;;;;;;8.15;6.25;;;;;;;6.12;100.00;101829.19;5051829;28;20025;-80
2024/01/19 10:50:14;;;;;;;11.07;7.20;;;;;;;6.41;100.00;101836.75;5051829;28;20021;-82
2024/01/19 10:52:44;;;;;;;8.63;6.43;;;;;;;6.35;100.00;101830.25;5033817;28;20072;-82
2024/01/19 10:55:17;;;;;;;12.60;7.20;;;;;;;6.38;100.00;101824.63;5052184;28;20029;-83
2024/01/19 10:57:42;;;;;;;7.18;6.30;;;;;;;6.52;100.00;101837.28;5051831;28;20057;-84
2024/01/19 11:00:28;;;;;;;11.23;6.13;;;;;;;5.86;100.00;101827.38;5051888;28;20421;-82
2024/01/19 11:02:59;;;;;;;8.63;6.53;;;;;;;5.31;100.00;101834.84;5051894;28;20033;-81
2024/01/19 11:05:25;;;;;;;9.25;6.22;;;;;;;5.27;100.00;101823.72;5017487;28;20065;-83